createdAt,value
2019-03-03T00:01:44.409Z,90.20
2019-03-03T00:04:12.072Z,90.20
2019-03-03T00:06:40.556Z,90.50
2019-03-03T00:09:09.241Z,90.20
2019-03-03T00:11:38.987Z,90.30
2019-03-03T00:14:06.498Z,90.30
2019-03-03T00:16:34.070Z,90.40
2019-03-03T00:19:01.656Z,90.30
2019-03-03T00:21:29.656Z,90.30
2019-03-03T00:23:57.463Z,90.30
2019-03-03T00:26:24.990Z,90.20
2019-03-03T00:28:52.698Z,90.40
2019-03-03T00:31:34.015Z,90.40
2019-03-03T00:34:01.777Z,90.40
2019-03-03T00:36:49.251Z,90.50
2019-03-03T00:39:27.918Z,90.60
2019-03-03T00:42:18.313Z,90.50
2019-03-03T00:45:09.631Z,90.40
2019-03-03T00:48:08.575Z,90.50
2019-03-03T00:50:45.514Z,90.50
2019-03-03T00:53:19.297Z,90.60
2019-03-03T00:56:05.080Z,90.70
2019-03-03T00:59:10.135Z,90.80
2019-03-03T01:01:43.895Z,90.60
2019-03-03T01:04:42.606Z,90.70
2019-03-03T01:07:29.872Z,90.60
2019-03-03T01:10:09.541Z,90.60
2019-03-03T01:12:59.837Z,90.50
2019-03-03T01:15:45.215Z,90.40
2019-03-03T01:18:41.605Z,90.50
2019-03-03T01:24:21.800Z,90.70
2019-03-03T01:26:49.202Z,90.60
2019-03-03T01:29:17.049Z,90.50
2019-03-03T01:31:44.476Z,90.60
2019-03-03T01:34:12.015Z,90.60
2019-03-03T01:36:39.530Z,90.60
2019-03-03T01:39:07.202Z,90.70
2019-03-03T01:41:35.703Z,90.70
2019-03-03T01:44:03.306Z,90.50
2019-03-03T01:46:30.823Z,90.50
2019-03-03T01:48:59.037Z,90.40
2019-03-03T01:51:26.378Z,90.60
2019-03-03T01:53:53.785Z,90.60
2019-03-03T01:56:21.363Z,90.70
2019-03-03T01:58:48.969Z,90.80
2019-03-03T02:01:16.624Z,90.80
2019-03-03T02:03:44.405Z,90.90
2019-03-03T02:06:12.135Z,91.00
2019-03-03T02:08:40.099Z,90.70
2019-03-03T02:11:07.735Z,90.60
2019-03-03T02:13:35.109Z,90.40
2019-03-03T02:16:04.556Z,90.40
2019-03-03T02:18:32.033Z,90.30
2019-03-03T02:20:59.511Z,90.20
2019-03-03T02:23:27.482Z,90.10
2019-03-03T02:25:54.839Z,90.00
2019-03-03T02:28:22.609Z,89.80
2019-03-03T02:30:50.141Z,89.70
2019-03-03T02:33:17.725Z,89.60
2019-03-03T02:35:45.179Z,89.30
2019-03-03T02:38:12.868Z,89.40
2019-03-03T02:40:40.540Z,89.50
2019-03-03T02:43:08.081Z,89.10
2019-03-03T02:45:35.730Z,89.10
2019-03-03T02:48:04.706Z,89.20
2019-03-03T02:50:32.398Z,89.00
2019-03-03T02:53:00.034Z,88.70
2019-03-03T02:55:27.569Z,88.50
2019-03-03T02:57:55.211Z,88.70
2019-03-03T03:00:22.987Z,88.70
2019-03-03T03:02:52.140Z,88.50
2019-03-03T03:05:39.650Z,88.00
2019-03-03T03:08:11.487Z,87.80
2019-03-03T03:11:15.818Z,87.60
2019-03-03T03:14:02.164Z,87.00
2019-03-03T03:16:38.374Z,86.40
2019-03-03T03:19:22.434Z,86.30
2019-03-03T03:22:16.157Z,86.50
2019-03-03T03:25:03.714Z,86.50
2019-03-03T03:27:50.906Z,86.50
2019-03-03T03:30:31.788Z,86.30
2019-03-03T03:33:30.817Z,86.90
2019-03-03T03:36:32.092Z,86.10
2019-03-03T03:39:19.451Z,86.40
2019-03-03T03:42:05.323Z,86.00
2019-03-03T03:44:52.563Z,85.70
2019-03-03T03:47:25.238Z,85.90
2019-03-03T03:50:13.972Z,85.80
2019-03-03T03:52:58.049Z,85.60
2019-03-03T03:55:49.543Z,85.50
2019-03-03T03:58:48.638Z,85.30
2019-03-03T04:01:28.614Z,85.30
2019-03-03T04:04:22.376Z,85.10
2019-03-03T04:06:56.977Z,85.40
2019-03-03T04:09:39.381Z,85.00
2019-03-03T04:12:13.231Z,85.00
2019-03-03T04:15:04.420Z,85.00
2019-03-03T04:17:45.965Z,85.10
2019-03-03T04:20:40.226Z,84.90
2019-03-03T04:23:30.329Z,84.50
2019-03-03T04:26:12.824Z,84.20
2019-03-03T04:28:47.687Z,84.00
2019-03-03T04:31:35.165Z,83.80
2019-03-03T04:34:25.482Z,83.80
2019-03-03T04:37:12.694Z,83.60
2019-03-03T04:40:03.408Z,83.80
2019-03-03T04:42:39.297Z,83.80
2019-03-03T04:45:18.560Z,83.70
2019-03-03T04:48:16.135Z,83.50
2019-03-03T04:51:03.222Z,83.70
2019-03-03T04:53:56.062Z,83.50
2019-03-03T04:56:43.323Z,83.50
2019-03-03T04:59:25.323Z,83.40
2019-03-03T05:02:22.059Z,83.40
2019-03-03T05:05:08.169Z,84.00
2019-03-03T05:07:42.869Z,83.50
2019-03-03T05:10:17.893Z,83.60
2019-03-03T05:12:56.566Z,83.60
2019-03-03T05:15:42.297Z,83.60
2019-03-03T05:18:32.081Z,83.70
2019-03-03T05:20:59.715Z,83.90
2019-03-03T05:23:27.111Z,84.10
2019-03-03T05:25:54.616Z,84.20
2019-03-03T05:28:22.103Z,84.10
2019-03-03T05:30:50.524Z,84.30
2019-03-03T05:33:18.237Z,84.10
2019-03-03T05:35:45.882Z,84.50
2019-03-03T05:38:13.484Z,84.20
2019-03-03T05:40:41.048Z,84.00
2019-03-03T05:43:08.614Z,84.00
2019-03-03T05:45:36.477Z,83.90
2019-03-03T05:48:04.065Z,83.90
2019-03-03T05:50:31.686Z,84.40
2019-03-03T05:52:59.700Z,84.20
2019-03-03T05:55:27.322Z,84.40
2019-03-03T05:57:59.293Z,84.60
2019-03-03T06:00:26.978Z,84.30
2019-03-03T06:02:55.154Z,84.00
2019-03-03T06:05:22.512Z,84.00
2019-03-03T06:07:50.446Z,83.90
2019-03-03T06:10:17.910Z,83.80
2019-03-03T06:12:45.432Z,83.90
2019-03-03T06:15:15.114Z,83.50
2019-03-03T06:17:43.280Z,83.60
2019-03-03T06:20:11.165Z,83.40
2019-03-03T06:22:38.751Z,83.00
2019-03-03T06:25:06.770Z,82.50
2019-03-03T06:27:34.332Z,82.30
2019-03-03T06:30:02.245Z,82.20
2019-03-03T06:32:30.943Z,81.90
2019-03-03T06:34:58.956Z,81.80
2019-03-03T06:37:27.390Z,81.10
2019-03-03T06:39:54.815Z,81.20
2019-03-03T06:42:22.155Z,80.60
2019-03-03T06:44:50.120Z,79.80
2019-03-03T06:47:17.820Z,79.80
2019-03-03T06:49:45.405Z,79.50
2019-03-03T06:52:12.891Z,79.40
2019-03-03T06:54:42.301Z,79.10
2019-03-03T06:57:09.785Z,79.10
2019-03-03T06:59:37.910Z,78.40
2019-03-03T07:02:05.723Z,78.20
2019-03-03T07:04:33.231Z,77.40
2019-03-03T07:07:00.736Z,76.70
2019-03-03T07:09:28.301Z,76.80
2019-03-03T07:11:56.040Z,76.80
2019-03-03T07:14:23.582Z,75.90
2019-03-03T07:16:50.964Z,75.70
2019-03-03T07:19:18.701Z,75.60
2019-03-03T07:21:46.242Z,74.90
2019-03-03T07:24:13.805Z,72.00
2019-03-03T07:26:41.492Z,69.30
2019-03-03T07:29:08.968Z,65.20
2019-03-03T07:31:36.639Z,62.50
2019-03-03T07:34:04.717Z,61.10
2019-03-03T07:36:32.331Z,60.00
2019-03-03T07:39:00.181Z,60.60
2019-03-03T07:41:27.511Z,60.60
2019-03-03T07:43:55.150Z,60.00
2019-03-03T07:46:22.691Z,60.60
2019-03-03T07:48:51.300Z,61.10
2019-03-03T07:51:18.753Z,62.40
2019-03-03T07:53:46.141Z,63.20
2019-03-03T07:56:14.622Z,63.30
2019-03-03T07:58:42.449Z,63.60
2019-03-03T08:01:09.797Z,66.00
2019-03-03T08:03:37.314Z,65.20
2019-03-03T08:06:04.959Z,64.60
2019-03-03T08:08:33.477Z,64.70
2019-03-03T08:11:01.545Z,64.10
2019-03-03T08:13:29.173Z,64.60
2019-03-03T08:15:56.696Z,64.80
2019-03-03T08:18:24.397Z,65.10
2019-03-03T08:20:53.518Z,64.70
2019-03-03T08:23:20.945Z,65.10
2019-03-03T08:25:48.571Z,65.60
2019-03-03T08:28:16.098Z,63.80
2019-03-03T08:30:43.894Z,62.60
2019-03-03T08:33:11.460Z,61.00
2019-03-03T08:35:39.034Z,58.90
2019-03-03T08:38:06.613Z,57.50
2019-03-03T08:40:34.215Z,57.10
2019-03-03T08:43:17.872Z,56.60
2019-03-03T08:46:04.212Z,56.60
2019-03-03T08:48:41.046Z,57.40
2019-03-03T08:51:40.518Z,56.70
2019-03-03T08:54:37.772Z,57.10
2019-03-03T08:57:24.960Z,57.10
2019-03-03T09:00:18.320Z,56.30
2019-03-03T09:03:05.542Z,57.10
2019-03-03T09:05:50.988Z,56.80
2019-03-03T09:08:35.388Z,56.00
2019-03-03T09:11:25.024Z,55.80
2019-03-03T09:14:11.792Z,55.40
2019-03-03T09:16:53.192Z,55.40
2019-03-03T09:19:45.087Z,54.70
2019-03-03T09:22:29.071Z,55.30
2019-03-03T09:25:16.842Z,56.40
2019-03-03T09:27:52.591Z,55.50
2019-03-03T09:30:42.843Z,55.70
2019-03-03T09:33:18.986Z,53.80
2019-03-03T09:35:59.650Z,49.70
2019-03-03T09:38:37.591Z,46.50
2019-03-03T09:41:19.174Z,46.60
2019-03-03T09:44:18.732Z,48.80
2019-03-03T09:47:10.170Z,49.40
2019-03-03T09:49:46.467Z,51.20
2019-03-03T09:52:23.862Z,53.20
2019-03-03T09:54:58.356Z,55.00
2019-03-03T09:57:56.687Z,56.20
2019-03-03T10:01:23.231Z,56.00
2019-03-03T10:09:41.151Z,52.90
2019-03-03T10:16:58.432Z,53.20
2019-03-03T10:19:40.266Z,54.70
2019-03-03T10:22:46.155Z,55.70
2019-03-03T10:25:32.637Z,56.00
2019-03-03T10:28:09.249Z,57.00
2019-03-03T10:30:56.469Z,57.30
2019-03-03T10:33:51.548Z,57.00
2019-03-03T10:36:39.384Z,54.50
2019-03-03T10:39:24.972Z,53.20
2019-03-03T10:42:12.933Z,53.90
2019-03-03T10:45:04.105Z,55.00
2019-03-03T10:47:57.641Z,57.10
2019-03-03T10:50:45.140Z,57.30
2019-03-03T10:53:25.049Z,58.20
2019-03-03T10:56:13.260Z,59.90
2019-03-03T10:58:57.035Z,62.10
2019-03-03T11:01:33.937Z,65.10
2019-03-03T11:04:44.218Z,65.80
2019-03-03T11:07:20.043Z,66.60
2019-03-03T11:10:19.155Z,66.50
2019-03-03T11:12:54.489Z,67.00
2019-03-03T11:15:47.633Z,67.70
2019-03-03T11:18:38.168Z,68.30
2019-03-03T11:21:19.573Z,68.70
2019-03-03T11:24:05.656Z,68.90
2019-03-03T11:26:41.215Z,69.70
2019-03-03T11:29:28.654Z,70.20
2019-03-03T11:32:16.068Z,71.10
2019-03-03T11:35:05.229Z,71.90
2019-03-03T11:38:10.146Z,72.60
2019-03-03T11:40:56.262Z,72.40
2019-03-03T11:43:45.248Z,73.70
2019-03-03T11:46:36.655Z,73.40
2019-03-03T11:49:30.031Z,73.70
2019-03-03T11:52:16.746Z,74.30
2019-03-03T11:55:00.875Z,74.30
2019-03-03T11:57:51.284Z,74.90
2019-03-03T12:00:51.630Z,75.20
2019-03-03T12:03:28.319Z,74.80
2019-03-03T12:06:09.663Z,74.80
2019-03-03T12:09:03.050Z,75.10
2019-03-03T12:11:40.438Z,74.20
2019-03-03T12:14:26.042Z,73.60
2019-03-03T12:17:05.263Z,74.20
2019-03-03T12:20:01.719Z,73.60
2019-03-03T12:23:05.274Z,72.60
2019-03-03T12:25:51.186Z,72.50
2019-03-03T12:28:33.890Z,72.90
2019-03-03T12:31:24.219Z,72.90
2019-03-03T12:34:02.819Z,72.70
2019-03-03T12:36:40.297Z,72.40
2019-03-03T12:39:15.516Z,71.40
2019-03-03T12:41:57.452Z,71.00
2019-03-03T12:44:39.688Z,70.40
2019-03-03T12:47:26.865Z,70.70
2019-03-03T12:50:04.448Z,71.20
2019-03-03T12:52:44.254Z,71.10
2019-03-03T12:55:18.787Z,71.40
2019-03-03T12:58:05.144Z,71.70
2019-03-03T13:00:52.614Z,72.30
2019-03-03T13:03:31.838Z,71.90
2019-03-03T13:06:08.453Z,71.70
2019-03-03T13:08:59.822Z,71.30
2019-03-03T13:11:45.665Z,71.40
2019-03-03T13:14:30.970Z,70.60
2019-03-03T13:17:17.295Z,69.10
2019-03-03T13:19:54.632Z,69.00
2019-03-03T13:22:46.558Z,69.20
2019-03-03T13:28:38.986Z,66.10
2019-03-03T13:31:17.805Z,64.70
2019-03-03T13:34:09.594Z,64.60
2019-03-03T13:36:59.044Z,62.60
2019-03-03T13:39:55.357Z,60.00
2019-03-03T13:42:31.353Z,59.10
2019-03-03T13:44:58.898Z,59.20
2019-03-03T13:47:26.513Z,58.30
2019-03-03T13:49:57.209Z,56.50
2019-03-03T13:52:24.696Z,53.90
2019-03-03T13:58:02.521Z,49.90
2019-03-03T14:00:30.178Z,48.00
2019-03-03T14:02:59.156Z,47.70
2019-03-03T14:05:26.964Z,46.10
2019-03-03T14:07:54.602Z,45.90
2019-03-03T14:10:25.347Z,46.00
2019-03-03T14:12:53.206Z,47.30
2019-03-03T14:15:24.903Z,48.90
2019-03-03T14:17:52.878Z,49.20
2019-03-03T14:20:21.718Z,49.40
2019-03-03T14:22:50.258Z,49.90
2019-03-03T14:25:17.895Z,50.20
2019-03-03T14:27:45.594Z,50.20
2019-03-03T14:30:16.209Z,50.20
2019-03-03T14:32:43.781Z,50.40
2019-03-03T14:35:12.431Z,51.90
2019-03-03T14:37:40.147Z,53.10
2019-03-03T14:40:09.923Z,54.90
2019-03-03T14:42:37.588Z,56.60
2019-03-03T14:45:09.156Z,58.00
2019-03-03T14:47:37.429Z,59.40
2019-03-03T14:50:06.594Z,60.90
2019-03-03T14:52:34.158Z,62.20
2019-03-03T14:55:01.856Z,63.50
2019-03-03T14:57:29.960Z,64.30
2019-03-03T14:59:57.570Z,65.10
2019-03-03T15:02:25.104Z,66.20
2019-03-03T15:04:52.485Z,66.70
2019-03-03T15:07:19.816Z,67.40
2019-03-03T15:09:50.376Z,68.60
2019-03-03T15:12:18.044Z,69.50
2019-03-03T15:14:45.547Z,70.00
2019-03-03T15:17:14.063Z,70.60
2019-03-03T15:19:41.870Z,71.10
2019-03-03T15:22:09.428Z,71.80
2019-03-03T15:24:37.071Z,72.70
2019-03-03T15:27:04.693Z,72.90
2019-03-03T15:29:32.443Z,73.30
2019-03-03T15:32:00.179Z,73.70
2019-03-03T15:34:27.739Z,73.90
2019-03-03T15:36:55.666Z,74.30
2019-03-03T15:39:23.123Z,74.90
2019-03-03T15:41:50.721Z,75.30
2019-03-03T15:44:18.529Z,75.70
2019-03-03T15:46:46.146Z,75.90
2019-03-03T15:49:13.818Z,76.30
2019-03-03T15:54:56.759Z,77.30
2019-03-03T15:57:24.330Z,78.00
2019-03-03T15:59:51.824Z,78.50
2019-03-03T16:02:19.655Z,79.10
2019-03-03T16:04:47.455Z,79.70
2019-03-03T16:07:14.786Z,80.30
2019-03-03T16:09:42.315Z,80.70
2019-03-03T16:12:09.852Z,81.00
2019-03-03T16:14:37.538Z,81.40
2019-03-03T16:17:05.388Z,81.80
2019-03-03T16:19:33.123Z,82.20
2019-03-03T16:22:00.640Z,82.50
2019-03-03T16:24:28.239Z,82.90
2019-03-03T16:26:55.614Z,83.10
2019-03-03T16:29:23.232Z,83.70
2019-03-03T16:31:50.807Z,84.30
2019-03-03T16:34:18.625Z,83.90
2019-03-03T16:36:46.616Z,84.60
2019-03-03T16:39:14.711Z,84.80
2019-03-03T16:41:42.296Z,85.10
2019-03-03T16:44:10.676Z,85.50
2019-03-03T16:46:40.466Z,85.90
2019-03-03T16:49:08.219Z,86.40
2019-03-03T16:51:37.655Z,86.70
2019-03-03T16:54:06.937Z,86.80
2019-03-03T16:56:36.466Z,87.80
2019-03-03T16:59:06.330Z,87.50
2019-03-03T17:01:33.876Z,87.30
2019-03-03T17:04:02.490Z,87.60
2019-03-03T17:06:30.346Z,87.80
2019-03-03T17:08:58.084Z,88.00
2019-03-03T17:11:26.431Z,88.50
2019-03-03T17:13:54.499Z,89.00
2019-03-03T17:16:21.912Z,89.50
2019-03-03T17:18:49.508Z,89.00
2019-03-03T17:21:17.075Z,88.90
2019-03-03T17:23:44.474Z,89.10
2019-03-03T17:26:12.817Z,89.10
2019-03-03T17:28:40.441Z,89.30
2019-03-03T17:31:08.128Z,89.20
2019-03-03T17:33:35.632Z,89.30
2019-03-03T17:36:03.215Z,89.30
2019-03-03T17:38:31.354Z,89.20
2019-03-03T17:40:58.642Z,89.10
2019-03-03T17:43:26.192Z,88.90
2019-03-03T17:45:53.872Z,88.60
2019-03-03T17:48:21.282Z,88.80
2019-03-03T17:50:49.596Z,88.60
2019-03-03T17:53:17.463Z,88.50
2019-03-03T17:55:45.230Z,88.60
2019-03-03T17:58:13.535Z,88.30
2019-03-03T18:00:42.256Z,88.10
2019-03-03T18:03:09.775Z,88.00
2019-03-03T18:05:39.096Z,87.90
2019-03-03T18:08:07.215Z,88.00
2019-03-03T18:10:34.740Z,89.00
2019-03-03T18:13:04.481Z,88.30
2019-03-03T18:15:34.327Z,88.10
2019-03-03T18:18:02.594Z,88.10
2019-03-03T18:20:30.628Z,88.20
2019-03-03T18:22:59.640Z,88.30
2019-03-03T18:25:27.187Z,88.40
2019-03-03T18:27:54.728Z,88.70
2019-03-03T18:30:23.203Z,88.70
2019-03-03T18:33:20.259Z,88.70
2019-03-03T18:35:48.255Z,88.90
2019-03-03T18:38:15.736Z,89.00
2019-03-03T18:40:43.959Z,89.00
2019-03-03T18:43:13.150Z,89.30
2019-03-03T18:45:40.611Z,89.20
2019-03-03T18:48:08.510Z,89.20
2019-03-03T18:50:36.000Z,89.20
2019-03-03T18:53:04.022Z,89.30
2019-03-03T18:55:31.624Z,89.10
2019-03-03T18:57:59.146Z,89.10
2019-03-03T19:00:26.986Z,89.20
2019-03-03T19:02:55.071Z,89.10
2019-03-03T19:05:29.758Z,89.00
2019-03-03T19:08:00.482Z,89.00
2019-03-03T19:10:29.755Z,89.30
2019-03-03T19:12:58.927Z,89.50
2019-03-03T19:15:28.303Z,89.20
2019-03-03T19:18:01.534Z,89.20
2019-03-03T19:20:33.045Z,89.30
2019-03-03T19:23:00.782Z,89.50
2019-03-03T19:25:28.303Z,89.20
2019-03-03T19:27:57.814Z,89.10
2019-03-03T19:30:25.579Z,89.20
2019-03-03T19:33:19.434Z,89.20
2019-03-03T19:35:47.131Z,89.40
2019-03-03T19:38:14.941Z,89.40
2019-03-03T19:40:43.710Z,89.80
2019-03-03T19:43:11.210Z,89.30
2019-03-03T19:45:38.971Z,89.60
2019-03-03T19:48:07.311Z,89.60
2019-03-03T19:50:34.897Z,89.50
2019-03-03T19:53:02.887Z,89.40
2019-03-03T19:55:30.696Z,89.50
2019-03-03T19:57:58.434Z,89.40
2019-03-03T20:00:35.375Z,89.30
2019-03-03T20:02:58.458Z,89.40
2019-03-03T20:05:26.193Z,89.10
2019-03-03T20:07:54.841Z,89.20
2019-03-03T20:10:22.410Z,89.30
2019-03-03T20:12:50.063Z,89.10
2019-03-03T20:15:17.826Z,88.90
2019-03-03T20:17:46.819Z,88.90
2019-03-03T20:20:15.718Z,88.80
2019-03-03T20:22:43.785Z,89.00
2019-03-03T20:25:11.676Z,88.80
2019-03-03T20:27:39.245Z,88.70
2019-03-03T20:30:10.341Z,88.50
2019-03-03T20:32:43.341Z,88.50
2019-03-03T20:35:11.949Z,88.50
2019-03-03T20:37:40.260Z,88.20
2019-03-03T20:40:11.870Z,88.10
2019-03-03T20:42:39.491Z,87.90
2019-03-03T20:45:10.745Z,87.90
2019-03-03T20:47:42.967Z,87.80
2019-03-03T20:50:17.106Z,87.70
2019-03-03T20:52:44.997Z,88.20
2019-03-03T20:55:14.206Z,87.60
2019-03-03T20:57:42.052Z,87.50
2019-03-03T21:00:16.645Z,87.60
2019-03-03T21:02:47.500Z,87.60
2019-03-03T21:05:15.171Z,87.50
2019-03-03T21:07:50.946Z,87.70
2019-03-03T21:10:17.134Z,87.70
2019-03-03T21:12:44.691Z,87.70
2019-03-03T21:15:12.535Z,87.80
2019-03-03T21:17:40.442Z,87.70
2019-03-03T21:20:10.817Z,87.60
2019-03-03T21:22:40.070Z,87.50
2019-03-03T21:25:09.379Z,87.60
2019-03-03T21:27:37.724Z,87.50
2019-03-03T21:30:13.862Z,87.50
2019-03-03T21:32:41.724Z,87.30
2019-03-03T21:35:09.286Z,87.10
2019-03-03T21:37:36.852Z,86.80
2019-03-03T21:40:09.177Z,86.50
2019-03-03T21:42:37.079Z,86.40
2019-03-03T21:45:06.233Z,86.10
2019-03-03T21:47:33.593Z,85.70
2019-03-03T21:50:01.106Z,85.60
2019-03-03T21:52:28.808Z,85.40
2019-03-03T21:54:56.242Z,85.10
2019-03-03T21:57:23.965Z,85.30
2019-03-03T21:59:51.698Z,85.00
2019-03-03T22:02:19.157Z,84.50
2019-03-03T22:04:46.746Z,84.40
2019-03-03T22:07:14.154Z,84.40
2019-03-03T22:09:42.104Z,84.30
2019-03-03T22:12:09.690Z,84.50
2019-03-03T22:14:37.189Z,84.50
2019-03-03T22:17:04.665Z,84.50
2019-03-03T22:19:32.416Z,84.60
2019-03-03T22:21:59.901Z,84.80
2019-03-03T22:24:27.325Z,86.00
2019-03-03T22:26:55.082Z,85.40
2019-03-03T22:29:22.948Z,85.40
2019-03-03T22:31:50.412Z,85.30
2019-03-03T22:34:18.792Z,85.30
2019-03-03T22:36:46.180Z,85.10
2019-03-03T22:39:14.007Z,85.10
2019-03-03T22:41:42.058Z,85.20
2019-03-03T22:44:09.604Z,85.20
2019-03-03T22:46:36.958Z,85.20
2019-03-03T22:49:04.607Z,85.20
2019-03-03T22:51:32.073Z,84.80
2019-03-03T22:53:59.459Z,84.70
2019-03-03T22:56:26.927Z,84.60
2019-03-03T22:58:54.375Z,84.60
2019-03-03T23:01:33.498Z,84.50
2019-03-03T23:05:06.779Z,85.00
2019-03-03T23:08:10.443Z,84.50
2019-03-03T23:11:23.589Z,84.70
2019-03-03T23:14:44.443Z,85.10
2019-03-03T23:18:00.446Z,85.10
2019-03-03T23:20:49.049Z,85.10
2019-03-03T23:24:16.371Z,85.50
2019-03-03T23:26:44.905Z,85.80
2019-03-03T23:29:12.222Z,86.20
2019-03-03T23:31:39.712Z,86.50
2019-03-03T23:34:07.213Z,86.60
2019-03-03T23:36:34.936Z,86.90
2019-03-03T23:39:04.700Z,87.00
2019-03-03T23:41:34.198Z,87.10
2019-03-03T23:44:01.714Z,87.10
2019-03-03T23:46:29.501Z,87.60
2019-03-03T23:48:57.064Z,87.50
2019-03-03T23:51:24.583Z,87.40
2019-03-03T23:53:51.937Z,87.40
2019-03-03T23:56:19.322Z,87.70
2019-03-03T23:58:46.926Z,88.40
